sensor_id;sensor_type;location;lat;lon;timestamp;temperature;humidity
6256;DHT22;3161;48.794;9.784;2023-04-01T00:02:17;10.40;99.90
6256;DHT22;3161;48.794;9.784;2023-04-01T00:04:45;10.40;99.90
6256;DHT22;3161;48.794;9.784;2023-04-01T00:07:12;10.40;99.90
6256;DHT22;3161;48.794;9.784;2023-04-01T00:09:40;10.40;99.90
6256;DHT22;3161;48.794;9.784;2023-04-01T00:12:08;10.40;99.90
6256;DHT22;3161;48.794;9.784;2023-04-01T00:14:36;10.40;99.90
6256;DHT22;3161;48.794;9.784;2023-04-01T00:17:03;10.30;99.90
6256;DHT22;3161;48.794;9.784;2023-04-01T00:19:31;10.30;99.90
6256;DHT22;3161;48.794;9.784;2023-04-01T00:21:59;10.30;99.90
6256;DHT22;3161;48.794;9.784;2023-04-01T00:24:26;10.30;99.90
6256;DHT22;3161;48.794;9.784;2023-04-01T00:26:54;10.30;99.90
6256;DHT22;3161;48.794;9.784;2023-04-01T00:29:22;10.20;99.90
6256;DHT22;3161;48.794;9.784;2023-04-01T00:31:50;10.20;99.90
6256;DHT22;3161;48.794;9.784;2023-04-01T00:34:18;10.20;99.90
6256;DHT22;3161;48.794;9.784;2023-04-01T00:36:46;10.20;99.90
6256;DHT22;3161;48.794;9.784;2023-04-01T00:39:14;10.20;99.90
6256;DHT22;3161;48.794;9.784;2023-04-01T00:41:42;10.30;99.90
6256;DHT22;3161;48.794;9.784;2023-04-01T00:44:18;10.30;99.90
6256;DHT22;3161;48.794;9.784;2023-04-01T00:46:46;10.30;99.90
6256;DHT22;3161;48.794;9.784;2023-04-01T00:49:16;10.30;99.90
6256;DHT22;3161;48.794;9.784;2023-04-01T00:51:46;10.30;99.90
6256;DHT22;3161;48.794;9.784;2023-04-01T00:54:16;10.20;99.90
6256;DHT22;3161;48.794;9.784;2023-04-01T00:56:52;10.30;99.90
6256;DHT22;3161;48.794;9.784;2023-04-01T00:59:22;10.30;99.90
6256;DHT22;3161;48.794;9.784;2023-04-01T01:01:50;10.30;99.90
6256;DHT22;3161;48.794;9.784;2023-04-01T01:04:32;10.20;99.90
6256;DHT22;3161;48.794;9.784;2023-04-01T01:10:02;10.10;99.90
6256;DHT22;3161;48.794;9.784;2023-04-01T01:12:43;10.10;99.90
6256;DHT22;3161;48.794;9.784;2023-04-01T01:17:49;10.10;99.90
6256;DHT22;3161;48.794;9.784;2023-04-01T01:23:06;10.00;99.90
6256;DHT22;3161;48.794;9.784;2023-04-01T01:31:33;10.00;99.90
6256;DHT22;3161;48.794;9.784;2023-04-01T01:36:48;10.00;99.90
6256;DHT22;3161;48.794;9.784;2023-04-01T01:39:17;10.00;99.90
6256;DHT22;3161;48.794;9.784;2023-04-01T01:41:47;9.90;99.90
6256;DHT22;3161;48.794;9.784;2023-04-01T01:44:16;9.80;99.90
6256;DHT22;3161;48.794;9.784;2023-04-01T01:46:45;9.80;99.90
6256;DHT22;3161;48.794;9.784;2023-04-01T01:49:13;9.70;99.90
6256;DHT22;3161;48.794;9.784;2023-04-01T01:51:42;9.70;99.90
6256;DHT22;3161;48.794;9.784;2023-04-01T01:54:14;9.70;99.90
6256;DHT22;3161;48.794;9.784;2023-04-01T01:56:44;9.70;99.90
6256;DHT22;3161;48.794;9.784;2023-04-01T01:59:12;9.70;99.90
6256;DHT22;3161;48.794;9.784;2023-04-01T02:01:44;9.60;99.90
6256;DHT22;3161;48.794;9.784;2023-04-01T02:04:13;9.60;99.90
6256;DHT22;3161;48.794;9.784;2023-04-01T02:06:49;9.60;99.90
6256;DHT22;3161;48.794;9.784;2023-04-01T02:09:13;9.60;99.90
6256;DHT22;3161;48.794;9.784;2023-04-01T02:11:45;9.60;99.90
6256;DHT22;3161;48.794;9.784;2023-04-01T02:14:13;9.60;99.90
6256;DHT22;3161;48.794;9.784;2023-04-01T02:17:04;9.60;99.90
6256;DHT22;3161;48.794;9.784;2023-04-01T02:19:39;9.60;99.90
6256;DHT22;3161;48.794;9.784;2023-04-01T02:22:10;9.50;99.90
6256;DHT22;3161;48.794;9.784;2023-04-01T02:24:39;9.60;99.90
6256;DHT22;3161;48.794;9.784;2023-04-01T02:27:08;9.50;99.90
6256;DHT22;3161;48.794;9.784;2023-04-01T02:29:36;9.40;99.90
6256;DHT22;3161;48.794;9.784;2023-04-01T02:32:05;9.40;99.90
6256;DHT22;3161;48.794;9.784;2023-04-01T02:34:33;9.40;99.90
6256;DHT22;3161;48.794;9.784;2023-04-01T02:37:00;9.40;99.90
6256;DHT22;3161;48.794;9.784;2023-04-01T02:39:28;9.30;99.90
6256;DHT22;3161;48.794;9.784;2023-04-01T02:41:56;9.40;99.90
6256;DHT22;3161;48.794;9.784;2023-04-01T02:44:24;9.30;99.90
6256;DHT22;3161;48.794;9.784;2023-04-01T02:46:52;9.30;99.90
6256;DHT22;3161;48.794;9.784;2023-04-01T02:49:19;9.30;99.90
6256;DHT22;3161;48.794;9.784;2023-04-01T02:51:47;9.30;99.90
6256;DHT22;3161;48.794;9.784;2023-04-01T02:54:14;9.30;99.90
6256;DHT22;3161;48.794;9.784;2023-04-01T02:56:42;9.30;99.90
6256;DHT22;3161;48.794;9.784;2023-04-01T02:59:09;9.30;99.90
6256;DHT22;3161;48.794;9.784;2023-04-01T03:01:37;9.20;99.90
6256;DHT22;3161;48.794;9.784;2023-04-01T03:04:05;9.30;99.90
6256;DHT22;3161;48.794;9.784;2023-04-01T03:06:32;9.30;99.90
6256;DHT22;3161;48.794;9.784;2023-04-01T03:09:00;9.30;99.90
6256;DHT22;3161;48.794;9.784;2023-04-01T03:11:27;9.30;99.90
6256;DHT22;3161;48.794;9.784;2023-04-01T03:13:55;9.30;99.90
6256;DHT22;3161;48.794;9.784;2023-04-01T03:16:22;9.30;99.90
6256;DHT22;3161;48.794;9.784;2023-04-01T03:18:50;9.20;99.90
6256;DHT22;3161;48.794;9.784;2023-04-01T03:21:23;9.20;99.90
6256;DHT22;3161;48.794;9.784;2023-04-01T03:23:51;9.20;99.90
6256;DHT22;3161;48.794;9.784;2023-04-01T03:26:19;9.20;99.90
6256;DHT22;3161;48.794;9.784;2023-04-01T03:28:48;9.30;99.90
6256;DHT22;3161;48.794;9.784;2023-04-01T03:31:15;9.20;99.90
6256;DHT22;3161;48.794;9.784;2023-04-01T03:33:43;9.20;99.90
6256;DHT22;3161;48.794;9.784;2023-04-01T03:36:11;9.20;99.90
6256;DHT22;3161;48.794;9.784;2023-04-01T03:38:40;9.20;99.90
6256;DHT22;3161;48.794;9.784;2023-04-01T03:41:16;9.20;99.90
6256;DHT22;3161;48.794;9.784;2023-04-01T03:43:44;9.20;99.90
6256;DHT22;3161;48.794;9.784;2023-04-01T03:46:17;9.20;99.90
6256;DHT22;3161;48.794;9.784;2023-04-01T03:48:44;9.20;99.90
6256;DHT22;3161;48.794;9.784;2023-04-01T03:51:12;9.20;99.90
6256;DHT22;3161;48.794;9.784;2023-04-01T03:53:39;9.30;99.90
6256;DHT22;3161;48.794;9.784;2023-04-01T03:56:08;9.20;99.90
6256;DHT22;3161;48.794;9.784;2023-04-01T03:58:36;9.20;99.90
6256;DHT22;3161;48.794;9.784;2023-04-01T04:01:16;9.30;99.90
6256;DHT22;3161;48.794;9.784;2023-04-01T04:03:44;9.20;99.90
6256;DHT22;3161;48.794;9.784;2023-04-01T04:06:13;9.20;99.90
6256;DHT22;3161;48.794;9.784;2023-04-01T04:08:41;9.20;99.90
6256;DHT22;3161;48.794;9.784;2023-04-01T04:11:09;9.20;99.90
6256;DHT22;3161;48.794;9.784;2023-04-01T04:13:36;9.20;99.90
6256;DHT22;3161;48.794;9.784;2023-04-01T04:16:04;9.20;99.90
6256;DHT22;3161;48.794;9.784;2023-04-01T04:18:32;9.20;99.90
6256;DHT22;3161;48.794;9.784;2023-04-01T04:21:00;9.20;99.90
6256;DHT22;3161;48.794;9.784;2023-04-01T04:23:27;9.20;99.90
6256;DHT22;3161;48.794;9.784;2023-04-01T04:26:04;9.20;99.90
6256;DHT22;3161;48.794;9.784;2023-04-01T04:28:33;9.20;99.90
6256;DHT22;3161;48.794;9.784;2023-04-01T04:31:01;9.20;99.90
6256;DHT22;3161;48.794;9.784;2023-04-01T04:33:30;9.20;99.90
6256;DHT22;3161;48.794;9.784;2023-04-01T04:35:59;9.20;99.90
6256;DHT22;3161;48.794;9.784;2023-04-01T04:38:27;9.10;99.90
6256;DHT22;3161;48.794;9.784;2023-04-01T04:40:55;9.10;99.90
6256;DHT22;3161;48.794;9.784;2023-04-01T04:43:22;9.10;99.90
6256;DHT22;3161;48.794;9.784;2023-04-01T04:45:50;9.10;99.90
6256;DHT22;3161;48.794;9.784;2023-04-01T04:48:17;9.00;99.90
6256;DHT22;3161;48.794;9.784;2023-04-01T04:50:48;8.90;99.90
6256;DHT22;3161;48.794;9.784;2023-04-01T04:53:17;8.90;99.90
6256;DHT22;3161;48.794;9.784;2023-04-01T04:55:47;8.90;99.90
6256;DHT22;3161;48.794;9.784;2023-04-01T04:58:15;9.00;99.90
6256;DHT22;3161;48.794;9.784;2023-04-01T05:00:44;8.90;99.90
6256;DHT22;3161;48.794;9.784;2023-04-01T05:03:12;8.90;99.90
6256;DHT22;3161;48.794;9.784;2023-04-01T05:05:47;8.90;99.90
6256;DHT22;3161;48.794;9.784;2023-04-01T05:08:09;8.90;99.90
6256;DHT22;3161;48.794;9.784;2023-04-01T05:10:36;9.00;99.90
6256;DHT22;3161;48.794;9.784;2023-04-01T05:13:04;9.00;99.90
6256;DHT22;3161;48.794;9.784;2023-04-01T05:15:31;9.00;99.90
6256;DHT22;3161;48.794;9.784;2023-04-01T05:18:00;9.10;99.90
6256;DHT22;3161;48.794;9.784;2023-04-01T05:20:27;9.00;99.90
6256;DHT22;3161;48.794;9.784;2023-04-01T05:22:58;9.10;99.90
6256;DHT22;3161;48.794;9.784;2023-04-01T05:25:26;9.00;99.90
6256;DHT22;3161;48.794;9.784;2023-04-01T05:27:54;9.00;99.90
6256;DHT22;3161;48.794;9.784;2023-04-01T05:30:21;9.10;99.90
6256;DHT22;3161;48.794;9.784;2023-04-01T05:32:49;9.20;99.90
6256;DHT22;3161;48.794;9.784;2023-04-01T05:35:16;9.20;99.90
6256;DHT22;3161;48.794;9.784;2023-04-01T05:37:44;9.20;99.90
6256;DHT22;3161;48.794;9.784;2023-04-01T05:40:11;9.30;99.90
6256;DHT22;3161;48.794;9.784;2023-04-01T05:42:39;9.30;99.90
6256;DHT22;3161;48.794;9.784;2023-04-01T05:45:07;9.30;99.90
6256;DHT22;3161;48.794;9.784;2023-04-01T05:47:35;9.30;99.90
6256;DHT22;3161;48.794;9.784;2023-04-01T05:50:03;9.30;99.90
6256;DHT22;3161;48.794;9.784;2023-04-01T05:52:30;9.30;99.90
6256;DHT22;3161;48.794;9.784;2023-04-01T05:54:58;9.40;99.90
6256;DHT22;3161;48.794;9.784;2023-04-01T05:57:27;9.40;99.90
6256;DHT22;3161;48.794;9.784;2023-04-01T05:59:54;9.40;99.90
6256;DHT22;3161;48.794;9.784;2023-04-01T06:02:22;9.40;99.90
6256;DHT22;3161;48.794;9.784;2023-04-01T06:04:49;9.40;99.90
6256;DHT22;3161;48.794;9.784;2023-04-01T06:07:19;9.50;99.90
6256;DHT22;3161;48.794;9.784;2023-04-01T06:09:47;9.50;99.90
6256;DHT22;3161;48.794;9.784;2023-04-01T06:23:45;9.80;99.90
6256;DHT22;3161;48.794;9.784;2023-04-01T06:26:30;9.80;99.90
6256;DHT22;3161;48.794;9.784;2023-04-01T06:29:22;9.90;99.90
6256;DHT22;3161;48.794;9.784;2023-04-01T06:37:16;10.00;99.90
6256;DHT22;3161;48.794;9.784;2023-04-01T06:42:38;10.00;99.90
6256;DHT22;3161;48.794;9.784;2023-04-01T06:47:49;10.10;99.90
6256;DHT22;3161;48.794;9.784;2023-04-01T06:50:26;10.10;99.90
6256;DHT22;3161;48.794;9.784;2023-04-01T06:53:14;10.20;99.90
6256;DHT22;3161;48.794;9.784;2023-04-01T06:55:44;10.20;99.90
6256;DHT22;3161;48.794;9.784;2023-04-01T06:58:29;10.20;99.90
6256;DHT22;3161;48.794;9.784;2023-04-01T07:00:54;10.20;99.90
6256;DHT22;3161;48.794;9.784;2023-04-01T07:03:53;10.20;99.90
6256;DHT22;3161;48.794;9.784;2023-04-01T07:06:45;10.30;99.90
6256;DHT22;3161;48.794;9.784;2023-04-01T07:09:22;10.30;99.90
6256;DHT22;3161;48.794;9.784;2023-04-01T07:11:50;10.40;99.90
6256;DHT22;3161;48.794;9.784;2023-04-01T07:14:33;10.40;99.90
6256;DHT22;3161;48.794;9.784;2023-04-01T07:17:25;10.40;99.90
6256;DHT22;3161;48.794;9.784;2023-04-01T07:20:30;10.40;99.90
6256;DHT22;3161;48.794;9.784;2023-04-01T07:22:43;10.40;99.90
6256;DHT22;3161;48.794;9.784;2023-04-01T07:25:24;10.40;99.90
6256;DHT22;3161;48.794;9.784;2023-04-01T07:27:47;10.50;99.90
6256;DHT22;3161;48.794;9.784;2023-04-01T07:30:18;10.50;99.90
6256;DHT22;3161;48.794;9.784;2023-04-01T07:33:07;10.50;99.90
6256;DHT22;3161;48.794;9.784;2023-04-01T07:35:42;10.50;99.90
6256;DHT22;3161;48.794;9.784;2023-04-01T07:38:32;10.60;99.90
6256;DHT22;3161;48.794;9.784;2023-04-01T07:41:22;10.60;99.90
6256;DHT22;3161;48.794;9.784;2023-04-01T07:43:44;10.70;99.90
6256;DHT22;3161;48.794;9.784;2023-04-01T07:46:23;10.80;99.90
6256;DHT22;3161;48.794;9.784;2023-04-01T07:51:40;10.80;99.90
6256;DHT22;3161;48.794;9.784;2023-04-01T07:54:09;10.80;99.90
6256;DHT22;3161;48.794;9.784;2023-04-01T07:56:45;10.90;99.90
6256;DHT22;3161;48.794;9.784;2023-04-01T07:59:21;10.90;99.90
6256;DHT22;3161;48.794;9.784;2023-04-01T08:05:10;11.00;99.90
6256;DHT22;3161;48.794;9.784;2023-04-01T08:11:15;11.10;99.90
6256;DHT22;3161;48.794;9.784;2023-04-01T08:19:44;11.30;99.90
6256;DHT22;3161;48.794;9.784;2023-04-01T08:21:54;11.20;99.90
6256;DHT22;3161;48.794;9.784;2023-04-01T08:24:27;11.30;99.90
6256;DHT22;3161;48.794;9.784;2023-04-01T08:26:58;11.30;99.90
6256;DHT22;3161;48.794;9.784;2023-04-01T08:29:39;11.20;99.90
6256;DHT22;3161;48.794;9.784;2023-04-01T08:32:12;11.20;99.90
6256;DHT22;3161;48.794;9.784;2023-04-01T08:34:43;11.20;99.90
6256;DHT22;3161;48.794;9.784;2023-04-01T08:37:28;11.30;99.90
6256;DHT22;3161;48.794;9.784;2023-04-01T08:56:42;11.00;99.90
6256;DHT22;3161;48.794;9.784;2023-04-01T08:59:38;10.90;99.90
6256;DHT22;3161;48.794;9.784;2023-04-01T09:13:25;10.80;99.90
6256;DHT22;3161;48.794;9.784;2023-04-01T09:18:47;10.80;99.90
6256;DHT22;3161;48.794;9.784;2023-04-01T09:21:28;10.90;99.90
6256;DHT22;3161;48.794;9.784;2023-04-01T09:26:53;11.00;99.90
6256;DHT22;3161;48.794;9.784;2023-04-01T09:34:57;11.10;99.90
6256;DHT22;3161;48.794;9.784;2023-04-01T09:40:37;10.90;99.90
6256;DHT22;3161;48.794;9.784;2023-04-01T09:46:09;10.60;99.90
6256;DHT22;3161;48.794;9.784;2023-04-01T10:10:20;10.60;99.90
6256;DHT22;3161;48.794;9.784;2023-04-01T10:23:44;10.70;99.90
6256;DHT22;3161;48.794;9.784;2023-04-01T10:32:00;10.80;99.90
6256;DHT22;3161;48.794;9.784;2023-04-01T10:37:23;10.50;99.90
6256;DHT22;3161;48.794;9.784;2023-04-01T10:40:13;10.40;99.90
6256;DHT22;3161;48.794;9.784;2023-04-01T10:49:02;10.30;99.90
6256;DHT22;3161;48.794;9.784;2023-04-01T10:51:34;10.30;99.90
6256;DHT22;3161;48.794;9.784;2023-04-01T10:57:00;10.40;99.90
6256;DHT22;3161;48.794;9.784;2023-04-01T11:08:31;10.70;99.90
6256;DHT22;3161;48.794;9.784;2023-04-01T11:11:28;10.70;99.90
6256;DHT22;3161;48.794;9.784;2023-04-01T11:17:10;10.70;99.90
6256;DHT22;3161;48.794;9.784;2023-04-01T11:22:57;10.50;99.90
6256;DHT22;3161;48.794;9.784;2023-04-01T11:25:29;10.30;99.90
6256;DHT22;3161;48.794;9.784;2023-04-01T11:33:35;10.00;99.90
6256;DHT22;3161;48.794;9.784;2023-04-01T11:38:58;9.90;99.90
6256;DHT22;3161;48.794;9.784;2023-04-01T11:44:23;9.90;99.90
6256;DHT22;3161;48.794;9.784;2023-04-01T12:04:00;10.20;99.90
6256;DHT22;3161;48.794;9.784;2023-04-01T12:06:44;10.30;99.90
6256;DHT22;3161;48.794;9.784;2023-04-01T12:15:19;10.60;99.90
6256;DHT22;3161;48.794;9.784;2023-04-01T12:18:10;10.60;99.90
6256;DHT22;3161;48.794;9.784;2023-04-01T12:20:43;10.80;99.90
6256;DHT22;3161;48.794;9.784;2023-04-01T12:26:21;11.10;99.90
6256;DHT22;3161;48.794;9.784;2023-04-01T12:29:07;11.20;99.90
6256;DHT22;3161;48.794;9.784;2023-04-01T12:34:40;11.20;99.90
6256;DHT22;3161;48.794;9.784;2023-04-01T12:43:03;11.20;99.90
6256;DHT22;3161;48.794;9.784;2023-04-01T12:45:35;11.10;99.90
6256;DHT22;3161;48.794;9.784;2023-04-01T12:48:20;11.10;99.90
6256;DHT22;3161;48.794;9.784;2023-04-01T12:51:03;11.10;99.90
6256;DHT22;3161;48.794;9.784;2023-04-01T12:56:02;11.10;99.90
6256;DHT22;3161;48.794;9.784;2023-04-01T12:58:59;11.10;99.90
6256;DHT22;3161;48.794;9.784;2023-04-01T13:04:22;11.20;99.90
6256;DHT22;3161;48.794;9.784;2023-04-01T13:09:45;11.10;99.90
6256;DHT22;3161;48.794;9.784;2023-04-01T13:17:36;11.30;99.90
6256;DHT22;3161;48.794;9.784;2023-04-01T13:22:58;11.30;99.90
6256;DHT22;3161;48.794;9.784;2023-04-01T13:25:46;11.20;99.90
6256;DHT22;3161;48.794;9.784;2023-04-01T13:28:27;11.20;99.90
6256;DHT22;3161;48.794;9.784;2023-04-01T13:36:52;11.20;99.90
6256;DHT22;3161;48.794;9.784;2023-04-01T13:42:28;11.10;99.90
6256;DHT22;3161;48.794;9.784;2023-04-01T13:45:15;11.10;99.90
6256;DHT22;3161;48.794;9.784;2023-04-01T13:50:37;11.10;99.90
6256;DHT22;3161;48.794;9.784;2023-04-01T13:56:24;11.20;99.90
6256;DHT22;3161;48.794;9.784;2023-04-01T13:59:00;11.10;99.90
6256;DHT22;3161;48.794;9.784;2023-04-01T14:06:49;11.00;99.90
6256;DHT22;3161;48.794;9.784;2023-04-01T14:09:33;11.00;99.90
6256;DHT22;3161;48.794;9.784;2023-04-01T14:15:05;11.00;99.90
6256;DHT22;3161;48.794;9.784;2023-04-01T14:20:32;11.00;99.90
6256;DHT22;3161;48.794;9.784;2023-04-01T14:29:31;10.90;99.90
6256;DHT22;3161;48.794;9.784;2023-04-01T14:40:56;11.10;99.90
6256;DHT22;3161;48.794;9.784;2023-04-01T14:43:54;11.10;99.90
6256;DHT22;3161;48.794;9.784;2023-04-01T14:49:32;11.10;99.90
6256;DHT22;3161;48.794;9.784;2023-04-01T14:52:11;11.10;99.90
6256;DHT22;3161;48.794;9.784;2023-04-01T14:54:41;11.10;99.90
6256;DHT22;3161;48.794;9.784;2023-04-01T14:57:20;11.10;99.90
6256;DHT22;3161;48.794;9.784;2023-04-01T14:59:53;11.10;99.90
6256;DHT22;3161;48.794;9.784;2023-04-01T15:02:37;11.10;99.90
6256;DHT22;3161;48.794;9.784;2023-04-01T15:05:21;11.10;99.90
6256;DHT22;3161;48.794;9.784;2023-04-01T15:13:38;11.00;99.90
6256;DHT22;3161;48.794;9.784;2023-04-01T15:19:09;10.90;99.90
6256;DHT22;3161;48.794;9.784;2023-04-01T15:24:52;10.90;99.90
6256;DHT22;3161;48.794;9.784;2023-04-01T15:33:09;11.00;99.90
6256;DHT22;3161;48.794;9.784;2023-04-01T15:38:36;11.10;99.90
6256;DHT22;3161;48.794;9.784;2023-04-01T15:41:16;11.10;99.90
6256;DHT22;3161;48.794;9.784;2023-04-01T15:43:46;11.10;99.90
6256;DHT22;3161;48.794;9.784;2023-04-01T15:46:43;11.10;99.90
6256;DHT22;3161;48.794;9.784;2023-04-01T15:57:36;11.10;99.90
6256;DHT22;3161;48.794;9.784;2023-04-01T16:00:09;11.10;99.90
6256;DHT22;3161;48.794;9.784;2023-04-01T16:02:44;11.10;99.90
6256;DHT22;3161;48.794;9.784;2023-04-01T16:17:08;11.00;99.90
6256;DHT22;3161;48.794;9.784;2023-04-01T16:20:02;10.90;99.90
6256;DHT22;3161;48.794;9.784;2023-04-01T16:22:38;10.90;99.90
6256;DHT22;3161;48.794;9.784;2023-04-01T16:30:44;10.70;99.90
6256;DHT22;3161;48.794;9.784;2023-04-01T16:35:47;10.70;99.90
6256;DHT22;3161;48.794;9.784;2023-04-01T16:41:29;10.60;99.90
6256;DHT22;3161;48.794;9.784;2023-04-01T16:43:59;10.60;99.90
6256;DHT22;3161;48.794;9.784;2023-04-01T16:57:16;10.50;99.90
6256;DHT22;3161;48.794;9.784;2023-04-01T16:59:51;10.50;99.90
6256;DHT22;3161;48.794;9.784;2023-04-01T17:02:18;10.40;99.90
6256;DHT22;3161;48.794;9.784;2023-04-01T17:08:08;10.40;99.90
6256;DHT22;3161;48.794;9.784;2023-04-01T17:10:48;10.40;99.90
6256;DHT22;3161;48.794;9.784;2023-04-01T17:24:31;10.40;99.90
6256;DHT22;3161;48.794;9.784;2023-04-01T17:32:12;10.40;99.90
6256;DHT22;3161;48.794;9.784;2023-04-01T17:37:43;10.40;99.90
6256;DHT22;3161;48.794;9.784;2023-04-01T17:40:15;10.40;99.90
6256;DHT22;3161;48.794;9.784;2023-04-01T17:43:10;10.40;99.90
6256;DHT22;3161;48.794;9.784;2023-04-01T17:45:33;10.40;99.90
6256;DHT22;3161;48.794;9.784;2023-04-01T17:48:15;10.40;99.90
6256;DHT22;3161;48.794;9.784;2023-04-01T17:51:07;10.40;99.90
6256;DHT22;3161;48.794;9.784;2023-04-01T17:53:48;10.30;99.90
6256;DHT22;3161;48.794;9.784;2023-04-01T17:59:31;10.30;99.90
6256;DHT22;3161;48.794;9.784;2023-04-01T18:02:25;10.30;99.90
6256;DHT22;3161;48.794;9.784;2023-04-01T18:10:25;10.20;99.90
6256;DHT22;3161;48.794;9.784;2023-04-01T18:13:30;10.20;99.90
6256;DHT22;3161;48.794;9.784;2023-04-01T18:18:57;10.20;99.90
6256;DHT22;3161;48.794;9.784;2023-04-01T18:21:40;10.20;99.90
6256;DHT22;3161;48.794;9.784;2023-04-01T18:24:28;10.20;99.90
6256;DHT22;3161;48.794;9.784;2023-04-01T18:30:05;10.20;99.90
6256;DHT22;3161;48.794;9.784;2023-04-01T18:32:36;10.10;99.90
6256;DHT22;3161;48.794;9.784;2023-04-01T18:35:34;10.20;99.90
6256;DHT22;3161;48.794;9.784;2023-04-01T18:40:36;10.10;99.90
6256;DHT22;3161;48.794;9.784;2023-04-01T18:46:46;10.10;99.90
6256;DHT22;3161;48.794;9.784;2023-04-01T18:51:58;10.10;99.90
6256;DHT22;3161;48.794;9.784;2023-04-01T18:54:30;10.10;99.90
6256;DHT22;3161;48.794;9.784;2023-04-01T18:57:13;10.10;99.90
6256;DHT22;3161;48.794;9.784;2023-04-01T18:59:39;10.10;99.90
6256;DHT22;3161;48.794;9.784;2023-04-01T19:04:44;10.10;99.90
6256;DHT22;3161;48.794;9.784;2023-04-01T19:10:23;10.10;99.90
6256;DHT22;3161;48.794;9.784;2023-04-01T19:18:40;9.90;99.90
6256;DHT22;3161;48.794;9.784;2023-04-01T19:21:19;9.80;99.90
6256;DHT22;3161;48.794;9.784;2023-04-01T19:23:53;9.80;99.90
6256;DHT22;3161;48.794;9.784;2023-04-01T19:26:37;9.70;99.90
6256;DHT22;3161;48.794;9.784;2023-04-01T19:38:04;9.70;99.90
6256;DHT22;3161;48.794;9.784;2023-04-01T19:40:53;9.70;99.90
6256;DHT22;3161;48.794;9.784;2023-04-01T19:46:36;9.70;99.90
6256;DHT22;3161;48.794;9.784;2023-04-01T19:49:24;9.70;99.90
6256;DHT22;3161;48.794;9.784;2023-04-01T19:52:00;9.70;99.90
6256;DHT22;3161;48.794;9.784;2023-04-01T20:08:07;9.30;99.90
6256;DHT22;3161;48.794;9.784;2023-04-01T20:16:08;9.20;99.90
6256;DHT22;3161;48.794;9.784;2023-04-01T20:18:58;9.20;99.90
6256;DHT22;3161;48.794;9.784;2023-04-01T20:21:34;9.20;99.90
6256;DHT22;3161;48.794;9.784;2023-04-01T20:26:45;9.20;99.90
6256;DHT22;3161;48.794;9.784;2023-04-01T20:29:36;9.20;99.90
6256;DHT22;3161;48.794;9.784;2023-04-01T20:32:11;9.20;99.90
6256;DHT22;3161;48.794;9.784;2023-04-01T20:37:20;9.20;99.90
6256;DHT22;3161;48.794;9.784;2023-04-01T20:46:01;9.20;99.90
6256;DHT22;3161;48.794;9.784;2023-04-01T20:48:41;9.20;99.90
6256;DHT22;3161;48.794;9.784;2023-04-01T20:51:13;9.20;99.90
6256;DHT22;3161;48.794;9.784;2023-04-01T20:54:03;9.20;99.90
6256;DHT22;3161;48.794;9.784;2023-04-01T20:56:44;9.20;99.90
6256;DHT22;3161;48.794;9.784;2023-04-01T21:13:27;9.30;99.90
6256;DHT22;3161;48.794;9.784;2023-04-01T21:26:52;9.40;99.90
6256;DHT22;3161;48.794;9.784;2023-04-01T21:32:18;9.30;99.90
6256;DHT22;3161;48.794;9.784;2023-04-01T21:35:00;9.30;99.90
6256;DHT22;3161;48.794;9.784;2023-04-01T21:40:37;9.20;99.90
6256;DHT22;3161;48.794;9.784;2023-04-01T21:54:11;9.10;99.90
6256;DHT22;3161;48.794;9.784;2023-04-01T21:56:56;9.10;99.90
6256;DHT22;3161;48.794;9.784;2023-04-01T22:02:20;9.10;99.90
6256;DHT22;3161;48.794;9.784;2023-04-01T22:10:38;9.20;99.90
6256;DHT22;3161;48.794;9.784;2023-04-01T22:13:19;9.20;99.90
6256;DHT22;3161;48.794;9.784;2023-04-01T22:18:45;9.20;99.90
6256;DHT22;3161;48.794;9.784;2023-04-01T22:23:55;9.10;99.90
6256;DHT22;3161;48.794;9.784;2023-04-01T22:26:44;9.10;99.90
6256;DHT22;3161;48.794;9.784;2023-04-01T22:29:25;9.10;99.90
6256;DHT22;3161;48.794;9.784;2023-04-01T22:32:02;9.10;99.90
6256;DHT22;3161;48.794;9.784;2023-04-01T22:37:23;9.10;99.90
6256;DHT22;3161;48.794;9.784;2023-04-01T22:40:16;9.10;99.90
6256;DHT22;3161;48.794;9.784;2023-04-01T22:43:01;9.10;99.90
6256;DHT22;3161;48.794;9.784;2023-04-01T22:48:43;9.00;99.90
6256;DHT22;3161;48.794;9.784;2023-04-01T22:51:16;9.00;99.90
6256;DHT22;3161;48.794;9.784;2023-04-01T22:56:36;8.90;99.90
6256;DHT22;3161;48.794;9.784;2023-04-01T22:59:13;8.90;99.90
6256;DHT22;3161;48.794;9.784;2023-04-01T23:01:45;8.90;99.90
6256;DHT22;3161;48.794;9.784;2023-04-01T23:04:15;9.00;99.90
6256;DHT22;3161;48.794;9.784;2023-04-01T23:06:51;9.00;99.90
6256;DHT22;3161;48.794;9.784;2023-04-01T23:09:29;9.00;99.90
6256;DHT22;3161;48.794;9.784;2023-04-01T23:12:05;8.90;99.90
6256;DHT22;3161;48.794;9.784;2023-04-01T23:14:39;9.00;99.90
6256;DHT22;3161;48.794;9.784;2023-04-01T23:25:54;8.90;99.90
6256;DHT22;3161;48.794;9.784;2023-04-01T23:30:57;8.90;99.90
6256;DHT22;3161;48.794;9.784;2023-04-01T23:33:31;8.90;99.90
6256;DHT22;3161;48.794;9.784;2023-04-01T23:36:13;8.80;99.90
6256;DHT22;3161;48.794;9.784;2023-04-01T23:38:34;8.80;99.90
6256;DHT22;3161;48.794;9.784;2023-04-01T23:41:03;8.80;99.90
6256;DHT22;3161;48.794;9.784;2023-04-01T23:43:34;8.80;99.90
6256;DHT22;3161;48.794;9.784;2023-04-01T23:46:03;8.80;99.90
6256;DHT22;3161;48.794;9.784;2023-04-01T23:48:40;8.80;99.90
6256;DHT22;3161;48.794;9.784;2023-04-01T23:51:20;8.80;99.90
6256;DHT22;3161;48.794;9.784;2023-04-01T23:53:56;8.80;99.90
6256;DHT22;3161;48.794;9.784;2023-04-01T23:56:18;8.90;99.90
6256;DHT22;3161;48.794;9.784;2023-04-01T23:58:52;8.90;99.90
